Fort Benning, GA

4:16 AM EDT on July 23, 2014 (GMT -0400)
Lawson Army Air Field (KLSF) Elev 233 ft | 32.32 °N, 84.98 °W | Change Station

Current weather conditions updated 3 minutes ago

Clear
Clear
70 °F
Feels Like 70 °F
N
2
Wind Variable Wind from NW

Today is forecast to be nearly the same temperature as yesterday.

Today
High -- | Low -- °F
--% Chance of Precip.
Yesterday
High -- | Low -- °F
Precip. -- in
6:48 AM 8:43 PM
Waning Crescent, 12% visible
Pressure 30.04 in
Visibility 10.0 miles
Clouds Clear
Dew Point 70 °F
Humidity 100%
Rainfall 0.00 in
Snow Depth Not available.
UV 0 out of 12
Pollen 2.60 out of 12
Ozone Good
PM2.5 Good
Flu Activity Not available.
SPECI KLSF 230813Z AUTO 32002KT 10SM CLR 21/21 A3004 RMK AO2

More Conditions Fewer Conditions

Pressure 30.04 in
Visibility 10.0 miles
Clouds Clear
Dew Point 70 °F
Humidity 100%
Rainfall 0.00 in
Snow Depth Not available.
UV 0 out of 12
Pollen 2.60 out of 12
Ozone Good
PM2.5 Good
Flu Activity Not available.
SPECI KLSF 230813Z AUTO 32002KT 10SM CLR 21/21 A3004 RMK AO2

More Conditions Fewer Conditions

10-Day Weather Forecast

Almanac

Astronomy

Jul. 23, 2014 Rise Set
Actual Time 6:48 AM EDT 8:43 PM EDT
Civil Twilight 6:20 AM EDT 9:11 PM EDT
Nautical Twilight 5:47 AM EDT 9:44 PM EDT
Astronomical Twilight 5:12 AM EDT 10:19 PM EDT
Moon 4:05 AM EDT 6:12 PM EDT
Length of Visible Light 14h 50m
Length of Day
13h 55m
Tomorrow will be 1m 16s shorter.
Waning Crescent, 12% of the Moon is Illuminated
Today
Waning Crescent
Jul 26
New
Aug 3
First Quarter
Aug 10
Full
Aug 17
Last Quarter

Today's Extremes

State Highs State Lows

Community

WunderPhotos

Upload Photos

1,736,529 photos uploaded!

Nearby

Air Quality

  Air Quality AQ Index Pollutant
Yesterday Good
OZONE
Current Good
PM2.5
Current Good
OZONE
Wednesday Good
PM2.5

Snow Depth

Station Depth Elevation
No new snow has been reported.

Earthquake Activity

City Distance Mag. Time & Date
No recent earthquake activity has been reported nearby.
Minimum magnitude displayed is 2.5.

Coastal Water Temperatures

Place Temperature
No Stations Reporting

Nearby Weather Stations

Station Location Temp. Dew Point Humidity Wind Precip. Elev Updated Type
Lincoln Hills, Columbus, GA 70.0 °F 70 °F 99% ENE  at  0.0 mph - / hr 433 ft 4:13 AM EDT Normal
Foxfire, Columbus, GA 70.1 °F 70 °F 99% WSW  at  0.0 mph 0.00 in / hr 436 ft 4:16 AM EDT Normal
Lakewood Heights, Phenix City, AL 70.1 °F 70 °F 99% NNW  at  0.0 mph 0.00 in / hr 394 ft 3:16 AM CDT Normal
Smiths Station, AL 70.2 °F 69 °F 96% NNW  at  0.0 mph 0.00 in / hr 370 ft 4:15 AM EDT Normal
Fortson GA, Columbus, GA 70.4 °F 68 °F 92% SE  at  0.0 mph 0.01 in / hr 528 ft 4:16 AM EDT Rapid Fire
Phenix City, Phenix City, AL 70.6 °F 70 °F 98% North  at  0.0 mph 0.00 in / hr 433 ft 3:15 AM CDT Normal
RoseParadiseFarm Hwy 36, Waverly Hall, GA 70.2 °F 70 °F 99% North  at  0.0 mph 0.00 in / hr 797 ft 4:16 AM EDT Rapid Fire

Show More Stations Show Fewer Stations